createdAt,value
2016-10-19T00:01:03.736Z,73.37
2016-10-19T00:02:14.211Z,73.37
2016-10-19T00:04:15.608Z,73.47
2016-10-19T00:05:26.218Z,73.75
2016-10-19T00:06:36.791Z,73.47
2016-10-19T00:07:47.313Z,73.27
2016-10-19T00:08:57.801Z,73.08
2016-10-19T00:10:08.395Z,73.18
2016-10-19T00:11:18.902Z,73.66
2016-10-19T00:12:29.433Z,73.57
2016-10-19T00:13:39.950Z,73.27
2016-10-19T00:14:50.476Z,73.18
2016-10-19T00:16:00.958Z,73.27
2016-10-19T00:17:11.466Z,73.37
2016-10-19T00:18:21.993Z,73.27
2016-10-19T00:19:32.507Z,73.33
2016-10-19T00:20:43.025Z,73.24
2016-10-19T00:21:53.501Z,73.24
2016-10-19T00:23:04.017Z,72.85
2016-10-19T00:24:14.490Z,73.33
2016-10-19T00:25:24.956Z,73.04
2016-10-19T00:26:35.457Z,73.04
2016-10-19T00:27:46.052Z,72.85
2016-10-19T00:28:56.532Z,73.04
2016-10-19T00:30:07.033Z,73.14
2016-10-19T00:31:17.539Z,72.95
2016-10-19T00:32:28.059Z,73.24
2016-10-19T00:33:38.664Z,73.82
2016-10-19T00:34:49.112Z,73.72
2016-10-19T00:35:59.594Z,73.72
2016-10-19T00:37:10.105Z,73.53
2016-10-19T00:38:21.052Z,73.14
2016-10-19T00:39:31.529Z,73.43
2016-10-19T00:40:42.001Z,73.24
2016-10-19T00:41:52.470Z,72.95
2016-10-19T00:43:02.976Z,73.04
2016-10-19T00:44:13.490Z,73.04
2016-10-19T00:45:24.005Z,73.53
2016-10-19T00:46:34.510Z,73.33
2016-10-19T00:47:45.094Z,73.59
2016-10-19T00:48:56.111Z,73.88
2016-10-19T00:50:06.580Z,73.78
2016-10-19T00:51:17.287Z,73.78
2016-10-19T00:52:27.828Z,73.68
2016-10-19T00:53:38.331Z,74.36
2016-10-19T00:54:48.815Z,73.88
2016-10-19T00:55:59.311Z,74.65
2016-10-19T00:57:11.319Z,74.94
2016-10-19T00:58:21.772Z,74.75
2016-10-19T00:59:32.283Z,75.13
2016-10-19T01:00:42.829Z,75.23
2016-10-19T01:01:53.302Z,74.9
2016-10-19T01:03:03.787Z,74.94
2016-10-19T01:04:14.289Z,74.94
2016-10-19T01:05:24.770Z,75.13
2016-10-19T01:06:35.287Z,75.52
2016-10-19T01:07:45.793Z,75.33
2016-10-19T01:08:56.525Z,75.58
2016-10-19T01:12:33.667Z,76.06
2016-10-19T01:13:44.155Z,76.26
2016-10-19T01:14:54.673Z,76.74
2016-10-19T01:16:05.159Z,77.51
2016-10-19T01:17:15.667Z,77.13
2016-10-19T01:18:26.176Z,76.93
2016-10-19T01:19:36.713Z,77.51
2016-10-19T01:20:47.218Z,77.76
2016-10-19T01:21:57.704Z,77.57
2016-10-19T01:23:08.659Z,78.06
2016-10-19T01:24:19.114Z,78.15
2016-10-19T01:25:29.597Z,78.34
2016-10-19T01:26:40.215Z,77.76
2016-10-19T01:27:50.683Z,78.15
2016-10-19T01:29:01.184Z,78.15
2016-10-19T01:30:11.684Z,78.44
2016-10-19T01:31:22.190Z,79.02
2016-10-19T01:32:32.912Z,78.92
2016-10-19T01:33:43.370Z,78.92
2016-10-19T01:34:53.857Z,79.7
2016-10-19T01:36:04.353Z,79.41
2016-10-19T01:37:14.873Z,79.12
2016-10-19T01:38:25.475Z,79.89
2016-10-19T01:39:35.964Z,80.18
2016-10-19T01:40:46.527Z,79.7
2016-10-19T01:41:57.078Z,80.08
2016-10-19T01:43:07.600Z,80.47
2016-10-19T01:44:18.216Z,80.08
2016-10-19T01:45:28.710Z,80.24
2016-10-19T01:46:39.212Z,80.72
2016-10-19T01:47:49.719Z,80.72
2016-10-19T01:49:00.203Z,81.11
2016-10-19T01:50:10.776Z,81.49
2016-10-19T01:51:21.248Z,81.3
2016-10-19T01:52:31.717Z,81.49
2016-10-19T01:53:42.164Z,81.11
2016-10-19T01:54:52.708Z,81.4
2016-10-19T01:56:03.243Z,81.2
2016-10-19T01:57:14.218Z,81.59
2016-10-19T01:58:24.699Z,81.78
2016-10-19T01:59:35.211Z,82.07
2016-10-19T02:00:45.683Z,81.59
2016-10-19T02:01:56.187Z,81.49
2016-10-19T02:03:06.705Z,82.46
2016-10-19T02:04:17.193Z,82.07
2016-10-19T02:05:27.674Z,81.68
2016-10-19T02:06:38.164Z,81.78
2016-10-19T02:07:48.838Z,81.98
2016-10-19T02:08:59.290Z,82.07
2016-10-19T02:10:09.781Z,82.26
2016-10-19T02:11:20.259Z,82.56
2016-10-19T02:12:30.742Z,82.36
2016-10-19T02:13:41.225Z,82.61
2016-10-19T02:14:51.760Z,82.65
2016-10-19T02:16:02.293Z,82.75
2016-10-19T02:17:12.799Z,82.9
2016-10-19T02:18:23.323Z,82.61
2016-10-19T02:19:33.976Z,82.81
2016-10-19T02:20:44.455Z,83.39
2016-10-19T02:21:54.942Z,84.25
2016-10-19T02:23:05.426Z,83.39
2016-10-19T02:24:15.961Z,83.77
2016-10-19T02:25:26.542Z,83.77
2016-10-19T02:26:37.030Z,84.06
2016-10-19T02:27:47.491Z,84.06
2016-10-19T02:28:57.994Z,84.16
2016-10-19T02:30:08.547Z,83.77
2016-10-19T02:31:19.095Z,83.87
2016-10-19T02:32:29.696Z,83.96
2016-10-19T02:33:40.197Z,84.35
2016-10-19T02:34:50.672Z,84.44
2016-10-19T02:36:01.160Z,84.74
2016-10-19T02:37:11.658Z,84.16
2016-10-19T02:38:22.163Z,84.74
2016-10-19T02:39:32.623Z,84.74
2016-10-19T02:40:43.117Z,84.16
2016-10-19T02:41:53.646Z,85.02
2016-10-19T02:43:04.258Z,84.74
2016-10-19T02:44:14.758Z,85.22
2016-10-19T02:45:25.247Z,84.74
2016-10-19T02:46:35.754Z,85.31
2016-10-19T02:47:46.349Z,85.12
2016-10-19T02:48:56.947Z,85.41
2016-10-19T02:50:07.405Z,85.12
2016-10-19T02:51:17.882Z,85.41
2016-10-19T02:52:28.364Z,85.12
2016-10-19T02:53:38.873Z,85.8
2016-10-19T02:54:49.373Z,85.31
2016-10-19T02:55:59.853Z,85.31
2016-10-19T02:57:10.305Z,85.41
2016-10-19T02:58:20.790Z,85.8
2016-10-19T02:59:31.294Z,86.08
2016-10-19T03:00:41.895Z,86.47
2016-10-19T03:01:52.381Z,86.14
2016-10-19T03:03:02.901Z,86.04
2016-10-19T03:04:13.419Z,86.14
2016-10-19T03:05:23.913Z,86.82
2016-10-19T03:06:34.497Z,86.33
2016-10-19T03:07:45.007Z,85.94
2016-10-19T03:08:55.501Z,86.43
2016-10-19T03:10:06.027Z,85.85
2016-10-19T03:11:16.523Z,87.01
2016-10-19T03:12:27.040Z,87.3
2016-10-19T03:13:37.587Z,87.1
2016-10-19T03:14:48.103Z,87.1
2016-10-19T03:15:58.583Z,86.52
2016-10-19T03:17:09.103Z,86.82
2016-10-19T03:18:19.716Z,87.01
2016-10-19T03:19:30.203Z,86.82
2016-10-19T03:20:40.652Z,87.49
2016-10-19T03:21:51.134Z,87.2
2016-10-19T03:23:01.630Z,87.68
2016-10-19T03:24:12.285Z,87.4
2016-10-19T03:25:22.790Z,87.01
2016-10-19T03:26:33.316Z,87.88
2016-10-19T03:27:43.841Z,87.1
2016-10-19T03:28:54.321Z,87.2
2016-10-19T03:30:04.780Z,87.1
2016-10-19T03:31:15.239Z,86.82
2016-10-19T03:32:25.687Z,86.24
2016-10-19T03:33:36.176Z,86.43
2016-10-19T03:34:46.636Z,86.82
2016-10-19T03:35:57.093Z,86.72
2016-10-19T03:37:07.541Z,86.24
2016-10-19T03:38:17.995Z,86.72
2016-10-19T03:39:28.495Z,87.01
2016-10-19T03:40:38.946Z,87.4
2016-10-19T03:41:49.515Z,86.91
2016-10-19T03:42:59.976Z,87.4
2016-10-19T03:44:10.471Z,87.3
2016-10-19T03:45:20.916Z,87.3
2016-10-19T03:46:31.375Z,86.91
2016-10-19T03:47:41.934Z,86.72
2016-10-19T03:48:52.387Z,86.91
2016-10-19T03:50:02.880Z,87.68
2016-10-19T03:51:13.371Z,87.4
2016-10-19T03:52:23.816Z,86.91
2016-10-19T03:53:34.311Z,87.3
2016-10-19T03:54:44.758Z,87.59
2016-10-19T03:55:55.228Z,88.07
2016-10-19T03:57:06.158Z,87.4
2016-10-19T03:58:16.634Z,87.3
2016-10-19T03:59:27.080Z,87.35
2016-10-19T04:00:37.538Z,87.2
2016-10-19T04:01:47.994Z,87.2
2016-10-19T04:02:58.455Z,87.97
2016-10-19T04:04:08.912Z,87.74
2016-10-19T04:05:19.367Z,87.74
2016-10-19T04:06:29.822Z,88.7
2016-10-19T04:07:40.278Z,87.83
2016-10-19T04:08:51.207Z,88.51
2016-10-19T04:10:01.701Z,88.6
2016-10-19T04:11:12.260Z,88.41
2016-10-19T04:12:22.716Z,88.12
2016-10-19T04:13:33.162Z,88.31
2016-10-19T04:14:43.624Z,88.41
2016-10-19T04:15:54.123Z,87.64
2016-10-19T04:17:04.678Z,87.64
2016-10-19T04:18:15.129Z,87.54
2016-10-19T04:19:25.581Z,87.74
2016-10-19T04:20:36.033Z,87.64
2016-10-19T04:21:46.519Z,88.02
2016-10-19T04:22:56.974Z,87.45
2016-10-19T04:24:07.432Z,87.83
2016-10-19T04:25:17.898Z,87.83
2016-10-19T04:26:28.341Z,88.51
2016-10-19T04:27:38.800Z,88.41
2016-10-19T04:28:49.247Z,87.83
2016-10-19T04:29:59.713Z,87.93
2016-10-19T04:31:10.164Z,87.45
2016-10-19T04:32:20.613Z,88.41
2016-10-19T04:33:31.558Z,87.78
2016-10-19T04:34:42.113Z,87.93
2016-10-19T04:35:52.575Z,88.89
2016-10-19T04:37:03.599Z,87.74
2016-10-19T04:38:14.150Z,88.31
2016-10-19T04:39:24.729Z,88.79
2016-10-19T04:40:35.402Z,88.12
2016-10-19T04:41:45.949Z,88.31
2016-10-19T04:42:56.495Z,88.22
2016-10-19T04:44:07.040Z,88.6
2016-10-19T04:45:17.540Z,88.99
2016-10-19T04:46:28.057Z,88.6
2016-10-19T04:47:38.555Z,88.6
2016-10-19T04:48:49.113Z,88.79
2016-10-19T04:49:59.667Z,88.7
2016-10-19T04:51:10.180Z,88.41
2016-10-19T04:52:20.680Z,88.6
2016-10-19T04:53:31.184Z,88.99
2016-10-19T04:54:41.740Z,88.51
2016-10-19T04:55:52.241Z,88.89
2016-10-19T04:57:02.769Z,88.6
2016-10-19T04:58:13.380Z,89.09
2016-10-19T04:59:23.924Z,88.89
2016-10-19T05:00:34.443Z,88.7
2016-10-19T05:01:45.024Z,88.51
2016-10-19T05:02:56.171Z,88.7
2016-10-19T05:04:06.756Z,88.7
2016-10-19T05:05:17.271Z,88.7
2016-10-19T05:06:27.792Z,88.31
2016-10-19T05:07:38.326Z,88.7
2016-10-19T05:08:48.916Z,88.6
2016-10-19T05:09:59.459Z,88.7
2016-10-19T05:11:10.038Z,88.89
2016-10-19T05:12:20.579Z,88.51
2016-10-19T05:13:31.189Z,88.51
2016-10-19T05:14:41.742Z,88.6
2016-10-19T05:15:52.292Z,88.45
2016-10-19T05:17:02.815Z,88.6
2016-10-19T05:18:13.321Z,88.7
2016-10-19T05:19:23.864Z,88.12
2016-10-19T05:20:34.371Z,88.51
2016-10-19T05:21:44.983Z,88.79
2016-10-19T05:22:55.513Z,88.45
2016-10-19T05:24:06.010Z,88.65
2016-10-19T05:25:16.527Z,87.74
2016-10-19T05:26:27.031Z,88.41
2016-10-19T05:27:37.701Z,88.55
2016-10-19T05:28:48.228Z,87.68
2016-10-19T05:29:58.787Z,87.97
2016-10-19T05:31:09.380Z,87.78
2016-10-19T05:32:19.942Z,87.88
2016-10-19T05:33:30.461Z,87.97
2016-10-19T05:34:40.985Z,87.3
2016-10-19T05:35:51.554Z,87.4
2016-10-19T05:37:02.051Z,87.78
2016-10-19T05:38:12.625Z,87.78
2016-10-19T05:39:23.228Z,87.78
2016-10-19T05:40:33.805Z,87.59
2016-10-19T05:41:44.337Z,87.68
2016-10-19T05:42:54.909Z,87.97
2016-10-19T05:44:05.413Z,87.3
2016-10-19T05:45:15.997Z,87.97
2016-10-19T05:46:27.006Z,87.4
2016-10-19T05:47:37.555Z,87.2
2016-10-19T05:48:48.099Z,87.4
2016-10-19T05:49:58.655Z,87.88
2016-10-19T05:51:09.196Z,87.3
2016-10-19T05:52:19.749Z,87.3
2016-10-19T05:53:30.321Z,86.82
2016-10-19T05:54:40.872Z,87.1
2016-10-19T05:55:51.891Z,86.91
2016-10-19T05:57:02.521Z,87.4
2016-10-19T05:58:13.074Z,87.4
2016-10-19T05:59:23.610Z,87.3
2016-10-19T06:00:34.162Z,87.4
2016-10-19T06:01:44.707Z,87.59
2016-10-19T06:02:55.293Z,87.49
2016-10-19T06:04:05.887Z,88.07
2016-10-19T06:05:16.482Z,87.26
2016-10-19T06:06:27.018Z,87.88
2016-10-19T06:07:37.545Z,87.01
2016-10-19T06:08:48.158Z,87.3
2016-10-19T06:09:58.730Z,87.2
2016-10-19T06:11:09.269Z,87.45
2016-10-19T06:12:19.833Z,87.35
2016-10-19T06:13:30.374Z,87.64
2016-10-19T06:14:40.955Z,87.26
2016-10-19T06:15:51.446Z,87.06
2016-10-19T06:17:01.943Z,87.49
2016-10-19T06:18:12.424Z,87.16
2016-10-19T06:19:22.962Z,87.45
2016-10-19T06:20:33.612Z,87.26
2016-10-19T06:21:44.176Z,87.26
2016-10-19T06:22:54.717Z,87.16
2016-10-19T06:24:06.201Z,87.74
2016-10-19T06:25:16.715Z,87.64
2016-10-19T06:26:27.258Z,88.6
2016-10-19T06:27:37.772Z,88.89
2016-10-19T06:28:48.345Z,88.7
2016-10-19T06:29:58.845Z,88.89
2016-10-19T06:31:09.930Z,88.12
2016-10-19T06:32:20.489Z,88.51
2016-10-19T06:33:30.994Z,88.51
2016-10-19T06:34:41.522Z,88.31
2016-10-19T06:35:52.072Z,88.99
2016-10-19T06:37:02.585Z,88.79
2016-10-19T06:38:13.233Z,88.89
2016-10-19T06:39:23.788Z,88.79
2016-10-19T06:40:34.352Z,88.51
2016-10-19T06:41:44.889Z,88.65
2016-10-19T06:42:55.417Z,88.65
2016-10-19T06:44:05.965Z,88.65
2016-10-19T06:45:17.010Z,89.33
2016-10-19T06:46:27.553Z,88.95
2016-10-19T06:47:38.064Z,88.56
2016-10-19T06:48:48.582Z,88.65
2016-10-19T06:49:59.185Z,88.37
2016-10-19T06:51:09.765Z,89.33
2016-10-19T06:52:20.218Z,88.95
2016-10-19T06:53:30.714Z,88.75
2016-10-19T06:54:41.169Z,88.56
2016-10-19T06:55:51.644Z,88.46
2016-10-19T06:57:02.184Z,88.75
2016-10-19T06:58:12.689Z,89.72
2016-10-19T06:59:23.806Z,89.62
2016-10-19T07:00:53.582Z,89.53
2016-10-19T07:02:04.094Z,89.33
2016-10-19T07:03:14.576Z,89.33
2016-10-19T07:04:25.110Z,90
2016-10-19T07:05:36.150Z,90.2
2016-10-19T07:06:46.640Z,90.48
2016-10-19T07:07:57.121Z,91.12
2016-10-19T07:09:07.645Z,91.64
2016-10-19T07:10:18.183Z,91.89
2016-10-19T07:11:28.698Z,91.99
2016-10-19T07:12:39.347Z,91.41
2016-10-19T07:13:50.300Z,92.27
2016-10-19T07:15:00.856Z,91.79
2016-10-19T07:16:11.354Z,91.99
2016-10-19T07:17:21.841Z,91.21
2016-10-19T07:18:32.373Z,91.31
2016-10-19T07:19:42.876Z,91.89
2016-10-19T07:20:53.382Z,92.08
2016-10-19T07:22:03.864Z,91.5
2016-10-19T07:23:14.404Z,91.41
2016-10-19T07:24:25.006Z,91.5
2016-10-19T07:25:35.578Z,91.89
2016-10-19T07:26:46.643Z,92.08
2016-10-19T07:27:57.195Z,92.27
2016-10-19T07:29:07.761Z,92.85
2016-10-19T07:30:18.376Z,92.27
2016-10-19T07:31:28.919Z,91.6
2016-10-19T07:32:39.457Z,92.08
2016-10-19T07:33:50.014Z,92.27
2016-10-19T07:35:00.550Z,92.37
2016-10-19T07:36:11.183Z,92.27
2016-10-19T07:37:21.700Z,93.04
2016-10-19T07:38:32.277Z,92.76
2016-10-19T07:39:42.811Z,92.42
2016-10-19T07:40:53.352Z,92.85
2016-10-19T07:42:04.100Z,92.71
2016-10-19T07:43:14.649Z,92.85
2016-10-19T07:44:25.181Z,92.56
2016-10-19T07:45:35.732Z,92.61
2016-10-19T07:46:46.267Z,92.66
2016-10-19T07:47:56.914Z,92.8
2016-10-19T07:49:07.558Z,93.19
2016-10-19T07:50:18.597Z,93.48
2016-10-19T07:51:29.180Z,93.77
2016-10-19T07:52:39.706Z,93.19
2016-10-19T07:53:50.248Z,93.77
2016-10-19T07:55:00.823Z,94.15
2016-10-19T07:56:11.367Z,93.48
2016-10-19T07:57:21.893Z,93.77
2016-10-19T07:58:32.462Z,93.38
2016-10-19T07:59:43.001Z,93.77
2016-10-19T08:00:53.558Z,93.67
2016-10-19T08:02:04.106Z,94.06
2016-10-19T08:03:14.642Z,93.77
2016-10-19T08:04:25.193Z,93.87
2016-10-19T08:05:35.845Z,94.73
2016-10-19T08:06:46.408Z,93.77
2016-10-19T08:07:56.895Z,94.34
2016-10-19T08:09:07.413Z,94.34
2016-10-19T08:10:17.918Z,94.54
2016-10-19T08:11:28.539Z,94.15
2016-10-19T08:12:39.087Z,94.44
2016-10-19T08:13:49.615Z,94.25
2016-10-19T08:15:00.108Z,94.64
2016-10-19T08:16:10.634Z,94.73
2016-10-19T08:17:21.169Z,94.73
2016-10-19T08:18:31.723Z,94.64
2016-10-19T08:19:42.288Z,95.02
2016-10-19T08:20:52.892Z,94.82
2016-10-19T08:22:03.412Z,94.06
2016-10-19T08:23:13.934Z,94.34
2016-10-19T08:24:24.443Z,94.54
2016-10-19T08:25:34.982Z,94.25
2016-10-19T08:26:46.421Z,93.67
2016-10-19T08:27:56.908Z,93.38
2016-10-19T08:29:07.514Z,93.67
2016-10-19T08:30:18.055Z,94.06
2016-10-19T08:31:28.548Z,93.77
2016-10-19T08:32:39.087Z,93.96
2016-10-19T08:33:49.595Z,94.49
2016-10-19T08:35:00.250Z,94.54
2016-10-19T08:36:10.845Z,94.44
2016-10-19T08:37:21.371Z,94.59
2016-10-19T08:38:31.915Z,94.25
2016-10-19T08:39:42.504Z,94.25
2016-10-19T08:40:53.042Z,94.54
2016-10-19T08:42:03.627Z,94.44
2016-10-19T08:43:14.170Z,93.57
2016-10-19T08:44:24.732Z,93.24
2016-10-19T08:45:35.332Z,93.81
2016-10-19T08:46:45.896Z,93.24
2016-10-19T08:47:56.465Z,93.24
2016-10-19T08:49:07.445Z,92.94
2016-10-19T08:50:18.010Z,92.85
2016-10-19T08:51:28.606Z,92.85
2016-10-19T08:52:39.277Z,91.79
2016-10-19T08:53:49.770Z,91.99
2016-10-19T08:55:00.332Z,91.89
2016-10-19T08:56:10.875Z,91.5
2016-10-19T08:57:21.433Z,91.55
2016-10-19T08:58:31.981Z,90.97
2016-10-19T08:59:42.522Z,91.16
2016-10-19T09:00:53.133Z,90.88
2016-10-19T09:02:03.680Z,91.55
2016-10-19T09:03:14.214Z,90.88
2016-10-19T09:04:24.739Z,91.16
2016-10-19T09:05:35.789Z,90.3
2016-10-19T09:06:46.290Z,89.91
2016-10-19T09:07:56.895Z,89.33
2016-10-19T09:09:07.445Z,89.28
2016-10-19T09:10:18.070Z,88.89
2016-10-19T09:11:28.604Z,88.89
2016-10-19T09:12:39.169Z,88.89
2016-10-19T09:13:49.702Z,88.7
2016-10-19T09:15:00.242Z,88.79
2016-10-19T09:16:10.903Z,88.55
2016-10-19T09:17:21.429Z,88.07
2016-10-19T09:18:31.940Z,87.1
2016-10-19T09:19:42.973Z,87.59
2016-10-19T09:20:53.463Z,86.91
2016-10-19T09:22:04.021Z,86.82
2016-10-19T09:23:14.560Z,87.05
2016-10-19T09:24:25.144Z,86.47
2016-10-19T09:25:35.697Z,86.08
2016-10-19T09:26:46.261Z,85.6
2016-10-19T09:27:56.921Z,84.74
2016-10-19T09:29:07.464Z,84.74
2016-10-19T09:30:17.959Z,84.83
2016-10-19T09:31:28.564Z,84.54
2016-10-19T09:32:39.098Z,84.25
2016-10-19T09:33:49.607Z,83.96
2016-10-19T09:35:00.144Z,83.23
2016-10-19T09:36:10.712Z,83.62
2016-10-19T09:37:21.272Z,82.84
2016-10-19T09:38:31.814Z,82.89
2016-10-19T09:39:42.501Z,80.76
2016-10-19T09:40:53.118Z,80.38
2016-10-19T09:42:03.708Z,79.35
2016-10-19T09:43:14.285Z,78.42
2016-10-19T09:44:24.900Z,77.45
2016-10-19T09:45:35.462Z,76.62
2016-10-19T09:46:46.036Z,77.4
2016-10-19T09:47:56.626Z,76.62
2016-10-19T09:49:07.194Z,76.33
2016-10-19T09:50:17.786Z,75.95
2016-10-19T09:51:28.469Z,76.37
2016-10-19T09:52:39.045Z,76.72
2016-10-19T09:53:49.626Z,77.5
2016-10-19T09:55:00.215Z,77.84
2016-10-19T09:56:10.786Z,77.75
2016-10-19T09:57:21.461Z,79.1
2016-10-19T09:58:32.043Z,79.64
2016-10-19T09:59:42.631Z,79.35
2016-10-19T10:00:53.207Z,78.96
2016-10-19T10:02:03.780Z,79.06
2016-10-19T10:03:14.370Z,78.42
2016-10-19T10:04:24.942Z,79.1
2016-10-19T10:05:35.530Z,79.45
2016-10-19T10:06:46.105Z,79.25
2016-10-19T10:07:56.717Z,79.16
2016-10-19T10:09:07.406Z,78.33
2016-10-19T10:10:17.994Z,77.65
2016-10-19T10:11:28.564Z,76.91
2016-10-19T10:12:39.107Z,75.37
2016-10-19T10:13:49.577Z,75.21
2016-10-19T10:15:00.074Z,74.24
2016-10-19T10:16:10.568Z,74.05
2016-10-19T10:17:21.026Z,74.66
2016-10-19T10:18:31.534Z,74.86
2016-10-19T10:19:42.003Z,73.41
2016-10-19T10:20:52.640Z,72.67
2016-10-19T10:22:03.177Z,70.57
2016-10-19T10:23:13.724Z,69.41
2016-10-19T10:24:24.668Z,67.79
2016-10-19T10:25:35.195Z,66.56
2016-10-19T10:26:45.806Z,66.5
2016-10-19T10:27:56.300Z,65.17
2016-10-19T10:29:06.787Z,64.78
2016-10-19T10:30:17.251Z,64.4
2016-10-19T10:31:27.775Z,62.97
2016-10-19T10:32:38.286Z,62.48
2016-10-19T10:33:48.801Z,61.93
2016-10-19T10:34:59.324Z,61.35
2016-10-19T10:36:10.320Z,59.92
2016-10-19T10:37:20.820Z,58.29
2016-10-19T10:38:31.405Z,57.35
2016-10-19T10:39:41.913Z,55.16
2016-10-19T10:40:52.895Z,54.8
2016-10-19T10:42:03.400Z,53.34
2016-10-19T10:43:13.881Z,52.09
2016-10-19T10:44:24.366Z,51.24
2016-10-19T10:45:34.874Z,49.53
2016-10-19T10:46:45.410Z,48.97
2016-10-19T10:47:55.930Z,48.68
2016-10-19T10:49:06.472Z,49.46
2016-10-19T10:50:17.458Z,48.8
2016-10-19T10:51:27.945Z,45.57
2016-10-19T10:52:38.462Z,44.66
2016-10-19T10:53:48.935Z,44.8
2016-10-19T10:54:59.438Z,44.78
2016-10-19T10:56:09.993Z,46.64
2016-10-19T10:57:20.542Z,46.86
2016-10-19T10:58:31.091Z,44.93
2016-10-19T10:59:41.605Z,44.09
2016-10-19T11:00:52.152Z,42.37
2016-10-19T11:02:02.787Z,42.66
2016-10-19T11:03:13.285Z,43.13
2016-10-19T11:04:23.812Z,42.65
2016-10-19T11:05:34.319Z,42.15
2016-10-19T11:06:44.868Z,42.1
2016-10-19T11:07:55.490Z,41.71
2016-10-19T11:09:06.019Z,41.33
2016-10-19T11:10:17.008Z,42.98
2016-10-19T11:11:27.543Z,43.8
2016-10-19T11:12:38.061Z,43.8
2016-10-19T11:13:48.708Z,43.6
2016-10-19T11:14:59.268Z,43.8
2016-10-19T11:16:09.752Z,43.04
2016-10-19T11:17:20.296Z,43.13
2016-10-19T11:18:30.791Z,41.86
2016-10-19T11:19:41.380Z,41.68
2016-10-19T11:20:51.888Z,40.13
2016-10-19T11:22:02.411Z,40.92
2016-10-19T11:23:12.920Z,41.61
2016-10-19T11:24:23.425Z,40.61
2016-10-19T11:25:34.045Z,40.35
2016-10-19T11:26:44.593Z,39.29
2016-10-19T11:27:55.091Z,38.34
2016-10-19T11:29:05.562Z,38.44
2016-10-19T11:30:16.042Z,38.64
2016-10-19T11:31:26.558Z,37.63
2016-10-19T11:32:37.061Z,36.4
2016-10-19T11:33:47.553Z,36.33
2016-10-19T11:34:58.059Z,35.63
2016-10-19T11:36:08.589Z,33.98
2016-10-19T11:37:19.251Z,34.69
2016-10-19T11:38:29.771Z,36.51
2016-10-19T11:39:40.292Z,36.79
2016-10-19T11:40:50.789Z,35.71
2016-10-19T11:42:01.278Z,34.64
2016-10-19T11:43:11.780Z,34.95
2016-10-19T11:44:22.262Z,36.1
2016-10-19T11:45:32.787Z,36.47
2016-10-19T11:46:43.281Z,34.61
2016-10-19T11:47:53.773Z,34.84
2016-10-19T11:49:04.388Z,33.26
2016-10-19T11:50:14.909Z,34.08
2016-10-19T11:51:25.435Z,33.07
2016-10-19T11:52:35.956Z,32.11
2016-10-19T11:53:46.468Z,32.34
2016-10-19T11:54:57.070Z,33.51
2016-10-19T11:56:07.592Z,33.56
2016-10-19T11:57:18.132Z,33.17
2016-10-19T11:58:28.702Z,32.98
2016-10-19T11:59:39.283Z,32.04
2016-10-19T12:00:49.784Z,31.06
2016-10-19T12:02:00.313Z,29.91
2016-10-19T12:03:10.808Z,29.64
2016-10-19T12:04:21.286Z,30.51
2016-10-19T12:05:31.798Z,30.3
2016-10-19T12:06:42.425Z,30.88
2016-10-19T12:07:52.936Z,31.37
2016-10-19T12:09:03.498Z,31.59
2016-10-19T12:10:14.087Z,30.78
2016-10-19T12:11:24.606Z,30.2
2016-10-19T12:12:35.130Z,30.3
2016-10-19T12:13:45.667Z,29.03
2016-10-19T12:14:56.172Z,27.19
2016-10-19T12:16:07.215Z,27.7
2016-10-19T12:17:17.738Z,27.5
2016-10-19T12:18:28.357Z,26.8
2016-10-19T12:19:39.379Z,27.62
2016-10-19T12:20:49.915Z,26.71
2016-10-19T12:22:00.419Z,27.58
2016-10-19T12:23:10.909Z,26.89
2016-10-19T12:24:22.459Z,26.81
2016-10-19T12:25:32.958Z,24.27
2016-10-19T12:26:43.524Z,25.08
2016-10-19T12:27:54.004Z,25.18
2016-10-19T12:29:04.494Z,25.56
2016-10-19T12:30:14.966Z,25.46
2016-10-19T12:31:25.436Z,25.49
2016-10-19T12:32:35.915Z,27.49
2016-10-19T12:33:46.395Z,28.53
2016-10-19T12:34:56.879Z,28.42
2016-10-19T12:36:07.351Z,26.76
2016-10-19T12:37:17.824Z,26.39
2016-10-19T12:38:28.301Z,26.19
2016-10-19T12:39:38.777Z,25.72
2016-10-19T12:40:49.250Z,22.99
2016-10-19T12:41:59.838Z,23.99
2016-10-19T12:43:10.315Z,24.18
2016-10-19T12:44:20.787Z,26.25
2016-10-19T12:45:31.272Z,27.28
2016-10-19T12:46:42.230Z,26.68
2016-10-19T12:47:52.804Z,26.77
2016-10-19T12:49:03.280Z,26.19
2016-10-19T12:50:13.753Z,26.01
2016-10-19T12:51:24.227Z,26.5
2016-10-19T12:52:34.698Z,25.21
2016-10-19T12:53:45.179Z,25.04
2016-10-19T12:54:55.664Z,25.16
2016-10-19T12:56:06.387Z,25.72
2016-10-19T12:57:16.856Z,24.46
2016-10-19T12:58:27.365Z,24.97
2016-10-19T12:59:37.946Z,26.42
2016-10-19T13:00:48.432Z,26.49
2016-10-19T13:01:58.920Z,26.67
2016-10-19T13:03:09.400Z,26.19
2016-10-19T13:04:19.908Z,25.5
2016-10-19T13:05:30.523Z,24.33
2016-10-19T13:06:41.001Z,24.36
2016-10-19T13:07:51.481Z,23.95
2016-10-19T13:09:01.995Z,24.37
2016-10-19T13:10:12.484Z,23.08
2016-10-19T13:11:23.107Z,23.1
2016-10-19T13:12:33.617Z,22.81
2016-10-19T13:13:44.111Z,24
2016-10-19T13:14:55.077Z,24.47
2016-10-19T13:16:05.551Z,23.28
2016-10-19T13:17:16.042Z,23.19
2016-10-19T13:18:26.530Z,23.02
2016-10-19T13:19:37.020Z,24
2016-10-19T13:20:47.502Z,25.05
2016-10-19T13:21:57.982Z,24.76
2016-10-19T13:23:08.518Z,25.07
2016-10-19T13:24:18.991Z,24.35
2016-10-19T13:25:29.510Z,24.46
2016-10-19T13:26:39.984Z,25.15
2016-10-19T13:27:50.938Z,24.05
2016-10-19T13:29:01.530Z,25.73
2016-10-19T13:30:12.025Z,26.31
2016-10-19T13:31:22.721Z,26.29
2016-10-19T13:32:33.205Z,26.89
2016-10-19T13:33:43.719Z,26.57
2016-10-19T13:34:54.240Z,25.99
2016-10-19T13:36:04.794Z,27.07
2016-10-19T13:37:15.328Z,26.57
2016-10-19T13:38:26.312Z,25.79
2016-10-19T13:39:36.875Z,26.1
2016-10-19T13:40:47.504Z,26.01
2016-10-19T13:41:58.546Z,25.91
2016-10-19T13:43:09.090Z,25.03
2016-10-19T13:44:19.651Z,25.14
2016-10-19T13:45:30.239Z,25.4
2016-10-19T13:48:05.908Z,26.87
2016-10-19T13:49:16.425Z,27.06
2016-10-19T13:50:27.469Z,27.15
2016-10-19T13:51:38.458Z,26.86
2016-10-19T13:52:48.938Z,26.76
2016-10-19T13:53:59.918Z,26.96
2016-10-19T13:55:10.904Z,26.76
2016-10-19T13:56:22.422Z,26.66
2016-10-19T13:57:32.946Z,26.28
2016-10-19T13:58:43.466Z,26.19
2016-10-19T13:59:53.998Z,26.01
2016-10-19T14:01:04.499Z,25.81
2016-10-19T14:02:15.009Z,24.92
2016-10-19T14:03:25.705Z,24.24
2016-10-19T14:04:36.268Z,24.65
2016-10-19T14:05:46.827Z,23.67
2016-10-19T14:06:57.407Z,23.38
2016-10-19T14:08:07.918Z,22.78
2016-10-19T14:09:18.527Z,24.45
2016-10-19T14:10:29.048Z,23.84
2016-10-19T14:11:39.576Z,24.15
2016-10-19T14:12:50.071Z,23.08
2016-10-19T14:14:00.650Z,22.29
2016-10-19T14:15:11.265Z,22.4
2016-10-19T14:16:21.766Z,22.61
2016-10-19T14:17:32.294Z,22.41
2016-10-19T14:18:42.791Z,22.61
2016-10-19T14:19:53.302Z,22.42
2016-10-19T14:21:03.884Z,21.23
2016-10-19T14:22:14.946Z,21.94
2016-10-19T14:23:25.443Z,20.75
2016-10-19T14:24:36.041Z,21.12
2016-10-19T14:25:46.545Z,22.48
2016-10-19T14:26:57.194Z,21.39
2016-10-19T14:28:07.706Z,21.56
2016-10-19T14:29:18.249Z,22.25
2016-10-19T14:30:28.752Z,21.56
2016-10-19T14:31:39.298Z,22.17
2016-10-19T14:32:49.794Z,21.86
2016-10-19T14:34:00.320Z,21.86
2016-10-19T14:35:10.864Z,21.88
2016-10-19T14:36:21.409Z,21.48
2016-10-19T14:37:31.944Z,20.89
2016-10-19T14:38:42.569Z,20.21
2016-10-19T14:39:53.115Z,20.9
2016-10-19T14:41:04.159Z,20.7
2016-10-19T14:42:14.633Z,21.09
2016-10-19T14:43:25.206Z,21.86
2016-10-19T14:44:35.683Z,22.26
2016-10-19T14:45:46.186Z,22.64
2016-10-19T14:46:57.244Z,22.45
2016-10-19T14:48:07.773Z,22.45
2016-10-19T14:49:18.253Z,20.79
2016-10-19T14:50:29.304Z,20.81
2016-10-19T14:51:39.819Z,21
2016-10-19T14:52:50.877Z,19.53
2016-10-19T14:54:01.865Z,19.34
2016-10-19T14:55:12.866Z,20.51
2016-10-19T14:56:23.554Z,20.51
2016-10-19T14:57:34.068Z,20.22
2016-10-19T14:58:44.593Z,20.22
2016-10-19T14:59:55.125Z,18.84
2016-10-19T15:01:05.635Z,18.73
2016-10-19T15:02:16.211Z,19.13
2016-10-19T15:03:26.697Z,19.02
2016-10-19T15:04:37.205Z,19.22
2016-10-19T15:05:47.746Z,17.74
2016-10-19T15:06:58.273Z,18.63
2016-10-19T15:08:08.963Z,17.34
2016-10-19T15:09:19.457Z,18.24
2016-10-19T15:10:29.968Z,17.14
2016-10-19T15:11:40.455Z,17.74
2016-10-19T15:12:50.954Z,18.92
2016-10-19T15:14:01.456Z,19.22
2016-10-19T15:15:11.965Z,18.33
2016-10-19T15:16:22.517Z,18.84
2016-10-19T15:17:33.542Z,17.93
2016-10-19T15:18:45.002Z,19.02